createdAt,value
2019-05-26T00:01:38.104Z,99.90
2019-05-26T00:04:42.016Z,99.90
2019-05-26T00:07:45.879Z,99.90
2019-05-26T00:10:49.826Z,99.90
2019-05-26T00:13:53.699Z,99.90
2019-05-26T00:16:57.599Z,99.90
2019-05-26T00:20:01.507Z,99.90
2019-05-26T00:23:05.702Z,99.90
2019-05-26T00:26:09.566Z,99.90
2019-05-26T00:29:13.420Z,99.90
2019-05-26T00:32:17.353Z,99.90
2019-05-26T00:35:21.334Z,99.90
2019-05-26T00:38:25.227Z,99.90
2019-05-26T00:41:29.065Z,99.90
2019-05-26T00:44:32.974Z,99.90
2019-05-26T00:47:36.899Z,99.90
2019-05-26T00:50:40.780Z,99.90
2019-05-26T00:53:44.681Z,99.90
2019-05-26T00:56:48.568Z,99.90
2019-05-26T01:00:12.087Z,99.90
2019-05-26T01:03:16.036Z,99.90
2019-05-26T01:06:19.931Z,99.90
2019-05-26T01:09:23.787Z,99.90
2019-05-26T01:12:27.824Z,99.90
2019-05-26T01:15:31.615Z,99.90
2019-05-26T01:18:35.587Z,99.90
2019-05-26T01:21:39.647Z,99.90
2019-05-26T01:24:43.561Z,99.90
2019-05-26T01:27:47.582Z,99.90
2019-05-26T01:30:51.487Z,99.90
2019-05-26T01:33:55.327Z,99.90
2019-05-26T01:36:59.560Z,99.90
2019-05-26T01:40:04.962Z,99.90
2019-05-26T01:43:10.058Z,99.90
2019-05-26T01:46:14.168Z,99.90
2019-05-26T01:49:18.047Z,99.90
2019-05-26T01:52:21.940Z,99.90
2019-05-26T01:55:25.779Z,99.90
2019-05-26T01:58:29.677Z,99.90
2019-05-26T02:01:33.608Z,99.90
2019-05-26T02:04:37.507Z,99.90
2019-05-26T02:07:41.392Z,99.90
2019-05-26T02:10:45.278Z,99.90
2019-05-26T02:13:49.126Z,99.90
2019-05-26T02:16:53.040Z,99.90
2019-05-26T02:19:56.957Z,99.90
2019-05-26T02:23:00.868Z,99.90
2019-05-26T02:26:04.717Z,99.90
2019-05-26T02:29:08.587Z,99.90
2019-05-26T02:32:12.479Z,99.90
2019-05-26T02:35:16.764Z,99.90
2019-05-26T02:38:25.701Z,99.90
2019-05-26T02:41:26.500Z,99.90
2019-05-26T02:44:30.454Z,99.90
2019-05-26T02:47:34.373Z,99.90
2019-05-26T02:50:38.240Z,99.90
2019-05-26T02:53:42.084Z,99.90
2019-05-26T02:56:45.993Z,99.90
2019-05-26T02:59:50.008Z,99.90
2019-05-26T03:02:54.000Z,99.90
2019-05-26T03:05:58.353Z,99.90
2019-05-26T03:09:21.259Z,99.90
2019-05-26T03:12:09.784Z,99.90
2019-05-26T03:15:15.575Z,99.90
2019-05-26T03:18:19.427Z,99.90
2019-05-26T03:21:25.046Z,99.90
2019-05-26T03:24:29.648Z,99.90
2019-05-26T03:27:33.582Z,99.90
2019-05-26T03:30:37.746Z,99.90
2019-05-26T03:33:41.629Z,99.90
2019-05-26T03:36:45.662Z,99.90
2019-05-26T03:39:49.520Z,99.90
2019-05-26T03:42:53.669Z,99.90
2019-05-26T03:46:08.940Z,99.90
2019-05-26T03:49:12.982Z,99.90
2019-05-26T03:52:16.852Z,99.90
2019-05-26T03:55:20.761Z,99.90
2019-05-26T03:58:24.691Z,99.90
2019-05-26T04:01:28.891Z,99.90
2019-05-26T04:04:32.820Z,99.90
2019-05-26T04:07:36.775Z,99.90
2019-05-26T04:10:40.672Z,99.90
2019-05-26T04:13:44.530Z,99.90
2019-05-26T04:16:48.581Z,99.90
2019-05-26T04:19:52.804Z,99.90
2019-05-26T04:22:56.793Z,99.90
2019-05-26T04:26:00.826Z,99.90
2019-05-26T04:29:04.830Z,99.90
2019-05-26T04:32:08.719Z,99.90
2019-05-26T04:35:12.607Z,99.90
2019-05-26T04:38:16.514Z,99.90
2019-05-26T04:41:20.381Z,99.90
2019-05-26T04:44:24.411Z,99.90
2019-05-26T04:47:28.491Z,99.90
2019-05-26T04:50:32.373Z,99.90
2019-05-26T04:53:36.208Z,99.90
2019-05-26T04:56:40.348Z,99.90
2019-05-26T04:59:44.205Z,99.90
2019-05-26T05:02:48.044Z,99.90
2019-05-26T05:05:52.027Z,99.90
2019-05-26T05:08:55.931Z,99.90
2019-05-26T05:11:59.786Z,99.90
2019-05-26T05:15:05.194Z,99.90
2019-05-26T05:18:09.079Z,99.90
2019-05-26T05:21:13.069Z,99.90
2019-05-26T05:24:16.917Z,99.90
2019-05-26T05:27:20.767Z,99.90
2019-05-26T05:30:25.216Z,99.90
2019-05-26T05:33:29.104Z,99.90
2019-05-26T05:36:33.109Z,99.90
2019-05-26T05:39:36.952Z,99.90
2019-05-26T05:42:40.901Z,99.40
2019-05-26T05:45:44.816Z,88.10
2019-05-26T05:48:48.656Z,71.50
2019-05-26T05:51:52.585Z,69.10
2019-05-26T05:54:56.647Z,58.10
2019-05-26T05:58:00.548Z,57.30
2019-05-26T06:01:04.660Z,56.30
2019-05-26T06:04:08.592Z,57.10
2019-05-26T06:07:12.467Z,51.80
2019-05-26T06:10:16.525Z,53.10
2019-05-26T06:13:20.546Z,49.60
2019-05-26T06:16:24.556Z,49.10
2019-05-26T06:19:28.583Z,48.60
2019-05-26T06:22:32.478Z,49.20
2019-05-26T06:25:36.395Z,49.30
2019-05-26T06:28:40.508Z,49.30
2019-05-26T06:31:44.645Z,47.50
2019-05-26T06:34:48.630Z,49.00
2019-05-26T06:37:52.479Z,46.30
2019-05-26T06:40:56.460Z,46.10
2019-05-26T06:44:00.339Z,44.30
2019-05-26T06:47:04.286Z,45.70
2019-05-26T06:50:08.266Z,45.00
2019-05-26T06:53:12.159Z,44.20
2019-05-26T06:56:15.983Z,44.50
2019-05-26T06:59:19.842Z,43.80
2019-05-26T07:02:23.808Z,46.20
2019-05-26T07:05:27.719Z,47.00
2019-05-26T07:08:31.624Z,50.40
2019-05-26T07:11:50.243Z,57.10
2019-05-26T07:14:41.066Z,58.30
2019-05-26T07:17:45.142Z,70.30
2019-05-26T07:20:49.145Z,69.60
2019-05-26T07:23:53.048Z,77.70
2019-05-26T07:26:56.968Z,80.40
2019-05-26T07:30:00.949Z,78.00
2019-05-26T07:33:04.915Z,80.40
2019-05-26T07:36:08.786Z,85.00
2019-05-26T07:39:12.822Z,96.50
2019-05-26T07:42:16.832Z,91.00
2019-05-26T07:45:20.807Z,95.50
2019-05-26T07:48:24.649Z,91.10
2019-05-26T07:51:28.506Z,92.00
2019-05-26T07:54:32.389Z,92.20
2019-05-26T07:57:36.309Z,94.70
2019-05-26T08:00:40.141Z,94.10
2019-05-26T08:03:44.067Z,90.50
2019-05-26T08:06:48.148Z,99.90
2019-05-26T08:09:52.251Z,97.10
2019-05-26T08:12:56.103Z,93.90
2019-05-26T08:15:59.999Z,95.10
2019-05-26T08:19:04.007Z,94.60
2019-05-26T08:22:08.083Z,94.70
2019-05-26T08:25:12.189Z,91.50
2019-05-26T08:28:16.323Z,98.40
2019-05-26T08:31:20.341Z,98.30
2019-05-26T08:34:24.210Z,96.30
2019-05-26T08:37:28.155Z,87.20
2019-05-26T08:40:32.282Z,93.30
2019-05-26T08:43:36.287Z,88.80
2019-05-26T08:46:40.397Z,85.70
2019-05-26T08:49:44.512Z,92.60
2019-05-26T08:52:48.527Z,83.20
2019-05-26T08:55:52.543Z,87.90
2019-05-26T08:58:56.497Z,93.90
2019-05-26T09:02:00.464Z,97.00
2019-05-26T09:05:07.767Z,94.50
2019-05-26T09:08:11.607Z,95.40
2019-05-26T09:11:15.702Z,94.90
2019-05-26T09:14:19.922Z,91.50
2019-05-26T09:17:24.012Z,98.00
2019-05-26T09:20:28.242Z,99.90
2019-05-26T09:23:32.144Z,92.40
2019-05-26T09:26:36.261Z,84.10
2019-05-26T09:29:40.384Z,86.50
2019-05-26T09:32:44.499Z,92.80
2019-05-26T09:35:48.421Z,84.60
2019-05-26T09:38:52.416Z,82.80
2019-05-26T09:41:56.359Z,89.00
2019-05-26T09:45:00.551Z,81.40
2019-05-26T09:48:04.556Z,87.70
2019-05-26T09:51:08.570Z,86.10
2019-05-26T09:54:12.939Z,76.70
2019-05-26T09:57:16.887Z,83.90
2019-05-26T10:00:21.553Z,79.10
2019-05-26T10:03:25.462Z,92.50
2019-05-26T10:06:29.336Z,89.40
2019-05-26T10:09:33.862Z,93.60
2019-05-26T10:12:37.944Z,96.20
2019-05-26T10:15:41.848Z,95.30
2019-05-26T10:18:45.808Z,99.30
2019-05-26T10:21:49.844Z,90.10
2019-05-26T10:24:53.748Z,90.20
2019-05-26T10:27:57.738Z,95.20
2019-05-26T10:31:01.860Z,99.90
2019-05-26T10:34:05.770Z,99.90
2019-05-26T10:37:09.586Z,99.90
2019-05-26T10:40:16.073Z,95.10
2019-05-26T10:43:20.085Z,95.20
2019-05-26T10:46:24.102Z,97.10
2019-05-26T10:49:28.239Z,90.00
2019-05-26T10:52:32.646Z,96.60
2019-05-26T10:55:36.871Z,95.20
2019-05-26T10:58:40.751Z,95.20
2019-05-26T11:01:45.553Z,94.10
2019-05-26T11:04:49.381Z,94.10
2019-05-26T11:07:53.286Z,94.90
2019-05-26T11:10:57.316Z,92.00
2019-05-26T11:14:03.153Z,97.20
2019-05-26T11:17:06.909Z,94.50
2019-05-26T11:20:12.206Z,96.40
2019-05-26T11:23:16.085Z,96.60
2019-05-26T11:26:20.082Z,97.20
2019-05-26T11:29:23.977Z,94.80
2019-05-26T11:32:28.093Z,96.90
2019-05-26T11:35:31.939Z,94.80
2019-05-26T11:38:35.842Z,91.30
2019-05-26T11:41:39.727Z,92.40
2019-05-26T11:44:43.591Z,92.20
2019-05-26T11:47:47.544Z,88.40
2019-05-26T11:50:51.675Z,91.60
2019-05-26T11:53:55.777Z,88.70
2019-05-26T11:56:59.593Z,93.40
2019-05-26T12:00:04.987Z,87.80
2019-05-26T12:03:08.871Z,84.70
2019-05-26T12:06:12.715Z,94.00
2019-05-26T12:09:16.639Z,92.40
2019-05-26T12:12:20.570Z,79.60
2019-05-26T12:15:24.760Z,75.70
2019-05-26T12:18:28.622Z,84.70
2019-05-26T12:21:32.567Z,75.40
2019-05-26T12:24:36.518Z,82.80
2019-05-26T12:27:40.378Z,88.10
2019-05-26T12:30:44.348Z,96.10
2019-05-26T12:33:48.206Z,92.40
2019-05-26T12:36:52.100Z,93.70
2019-05-26T12:39:56.161Z,90.90
2019-05-26T12:43:00.172Z,92.80
2019-05-26T12:46:04.075Z,80.60
2019-05-26T12:49:07.907Z,80.60
2019-05-26T12:52:12.561Z,82.70
2019-05-26T12:55:16.437Z,91.10
2019-05-26T12:58:20.349Z,76.30
2019-05-26T13:01:24.272Z,75.30
2019-05-26T13:04:28.367Z,68.20
2019-05-26T13:07:32.199Z,76.50
2019-05-26T13:10:36.102Z,72.30
2019-05-26T13:13:39.948Z,65.50
2019-05-26T13:16:43.807Z,72.90
2019-05-26T13:19:52.196Z,61.50
2019-05-26T13:22:57.124Z,72.10
2019-05-26T13:26:01.136Z,62.70
2019-05-26T13:29:05.060Z,65.40
2019-05-26T13:32:08.931Z,74.60
2019-05-26T13:35:13.327Z,70.90
2019-05-26T13:38:17.481Z,64.50
2019-05-26T13:41:21.320Z,69.00
2019-05-26T13:44:25.248Z,69.10
2019-05-26T13:47:29.087Z,66.00
2019-05-26T13:50:32.952Z,66.70
2019-05-26T13:53:36.917Z,71.30
2019-05-26T13:56:41.271Z,81.70
2019-05-26T13:59:45.127Z,64.20
2019-05-26T14:02:49.000Z,70.70
2019-05-26T14:05:52.820Z,70.10
2019-05-26T14:08:56.732Z,69.00
2019-05-26T14:12:00.720Z,64.20
2019-05-26T14:15:06.927Z,62.50
2019-05-26T14:18:10.890Z,68.40
2019-05-26T14:21:14.764Z,71.00
2019-05-26T14:24:18.601Z,74.00
2019-05-26T14:27:22.552Z,78.70
2019-05-26T14:30:29.079Z,64.80
2019-05-26T14:33:33.008Z,71.90
2019-05-26T14:36:36.828Z,73.80
2019-05-26T14:39:40.734Z,70.90
2019-05-26T14:42:44.740Z,74.40
2019-05-26T14:45:53.489Z,73.10
2019-05-26T14:48:54.710Z,76.30
2019-05-26T14:51:59.186Z,80.60
2019-05-26T14:55:03.111Z,89.90
2019-05-26T14:58:15.625Z,73.50
2019-05-26T15:01:12.490Z,78.80
2019-05-26T15:04:16.844Z,82.70
2019-05-26T15:07:20.738Z,84.30
2019-05-26T15:10:24.765Z,93.50
2019-05-26T15:13:28.562Z,88.10
2019-05-26T15:16:32.457Z,90.40
2019-05-26T15:19:36.360Z,88.90
2019-05-26T15:22:40.207Z,89.00
2019-05-26T15:25:44.127Z,90.20
2019-05-26T15:28:47.961Z,92.20
2019-05-26T15:31:51.915Z,93.00
2019-05-26T15:34:55.839Z,93.60
2019-05-26T15:37:59.768Z,93.40
2019-05-26T15:41:03.662Z,98.60
2019-05-26T15:44:07.540Z,95.30
2019-05-26T15:47:11.445Z,94.50
2019-05-26T15:50:15.547Z,98.70
2019-05-26T15:53:19.361Z,99.90
2019-05-26T15:56:23.216Z,99.60
2019-05-26T15:59:27.044Z,99.60
2019-05-26T16:02:30.988Z,97.00
2019-05-26T16:05:34.868Z,99.00
2019-05-26T16:08:38.758Z,95.80
2019-05-26T16:11:43.641Z,99.40
2019-05-26T16:14:47.648Z,99.90
2019-05-26T16:17:51.522Z,99.40
2019-05-26T16:21:03.151Z,99.90
2019-05-26T16:24:03.135Z,99.90
2019-05-26T16:27:18.646Z,99.70
2019-05-26T16:30:12.751Z,99.90
2019-05-26T16:33:17.216Z,99.90
2019-05-26T16:36:21.661Z,99.90
2019-05-26T16:39:36.556Z,99.90
2019-05-26T16:42:31.106Z,99.90
2019-05-26T16:45:37.162Z,99.90
2019-05-26T16:48:40.600Z,99.90
2019-05-26T16:51:44.469Z,99.90
2019-05-26T16:54:48.399Z,99.90
2019-05-26T16:57:52.247Z,99.90
2019-05-26T17:00:56.164Z,99.90
2019-05-26T17:04:00.003Z,99.90
2019-05-26T17:07:03.929Z,99.90
2019-05-26T17:10:09.232Z,99.90
2019-05-26T17:13:13.137Z,99.90
2019-05-26T17:16:17.007Z,99.90
2019-05-26T17:19:20.901Z,99.90
2019-05-26T17:22:25.042Z,99.90
2019-05-26T17:25:28.899Z,99.90
2019-05-26T17:28:32.707Z,99.90
2019-05-26T17:31:36.885Z,99.90
2019-05-26T17:34:48.651Z,99.90
2019-05-26T17:37:53.916Z,99.90
2019-05-26T17:40:57.738Z,99.90
2019-05-26T17:44:01.652Z,99.90
2019-05-26T17:47:05.586Z,99.90
2019-05-26T17:50:11.552Z,99.90
2019-05-26T17:53:15.372Z,99.90
2019-05-26T17:56:19.262Z,99.90
2019-05-26T17:59:23.144Z,99.90
2019-05-26T18:02:27.089Z,99.90
2019-05-26T18:05:30.959Z,99.90
2019-05-26T18:08:36.537Z,99.90
2019-05-26T18:11:40.385Z,99.90
2019-05-26T18:14:44.209Z,99.90
2019-05-26T18:17:48.425Z,99.90
2019-05-26T18:20:52.327Z,99.90
2019-05-26T18:23:56.249Z,99.90
2019-05-26T18:27:00.110Z,99.90
2019-05-26T18:30:05.727Z,99.90
2019-05-26T18:33:09.743Z,99.90
2019-05-26T18:36:13.767Z,99.90
2019-05-26T18:39:17.828Z,99.90
2019-05-26T18:42:21.877Z,99.90
2019-05-26T18:45:25.866Z,99.90
2019-05-26T18:48:29.730Z,99.90
2019-05-26T18:51:33.700Z,99.90
2019-05-26T18:54:37.520Z,99.90
2019-05-26T18:57:41.419Z,99.90
2019-05-26T19:00:45.360Z,99.90
2019-05-26T19:03:49.247Z,99.90
2019-05-26T19:06:53.119Z,99.90
2019-05-26T19:09:57.019Z,99.90
2019-05-26T19:13:00.908Z,99.90
2019-05-26T19:16:04.893Z,99.90
2019-05-26T19:19:08.776Z,99.90
2019-05-26T19:22:12.690Z,99.90
2019-05-26T19:25:16.783Z,99.90
2019-05-26T19:28:20.638Z,99.90
2019-05-26T19:31:24.754Z,99.90
2019-05-26T19:34:28.749Z,99.90
2019-05-26T19:37:32.746Z,99.90
2019-05-26T19:40:36.818Z,99.90
2019-05-26T19:43:48.905Z,99.90
2019-05-26T19:46:53.382Z,99.90
2019-05-26T19:49:57.649Z,99.90
2019-05-26T19:53:01.763Z,99.90
2019-05-26T19:56:05.861Z,99.90
2019-05-26T19:59:09.807Z,99.90
2019-05-26T20:02:18.317Z,99.90
2019-05-26T20:05:19.307Z,99.90
2019-05-26T20:08:23.148Z,99.90
2019-05-26T20:11:27.095Z,99.90
2019-05-26T20:14:30.958Z,99.90
2019-05-26T20:17:34.946Z,99.90
2019-05-26T20:20:39.002Z,99.90
2019-05-26T20:23:42.904Z,99.90
2019-05-26T20:26:46.922Z,99.90
2019-05-26T20:29:50.827Z,99.90
2019-05-26T20:32:55.215Z,99.90
2019-05-26T20:35:59.153Z,99.90
2019-05-26T20:39:03.062Z,99.90
2019-05-26T20:42:07.305Z,99.90
2019-05-26T20:45:11.459Z,99.90
2019-05-26T20:48:15.306Z,99.90
2019-05-26T20:51:19.171Z,99.90
2019-05-26T20:54:23.258Z,99.90
2019-05-26T20:57:27.246Z,99.90
2019-05-26T21:00:31.133Z,99.90
2019-05-26T21:03:35.009Z,99.90
2019-05-26T21:06:38.942Z,99.90
2019-05-26T21:09:43.107Z,99.90
2019-05-26T21:12:47.013Z,99.90
2019-05-26T21:15:50.875Z,99.90
2019-05-26T21:18:54.726Z,99.90
2019-05-26T21:21:58.633Z,99.90
2019-05-26T21:25:02.466Z,99.90
2019-05-26T21:28:06.329Z,99.90
2019-05-26T21:31:10.187Z,99.90
2019-05-26T21:34:14.106Z,99.90
2019-05-26T21:37:17.949Z,99.90
2019-05-26T21:40:23.328Z,99.90
2019-05-26T21:43:27.363Z,99.90
2019-05-26T21:46:31.357Z,99.90
2019-05-26T21:49:35.300Z,99.90
2019-05-26T21:52:39.299Z,99.90
2019-05-26T21:55:43.266Z,99.90
2019-05-26T21:58:47.195Z,99.90
2019-05-26T22:01:51.217Z,99.90
2019-05-26T22:04:55.114Z,99.90
2019-05-26T22:07:59.036Z,99.90
2019-05-26T22:11:02.957Z,99.90
2019-05-26T22:14:06.980Z,99.90
2019-05-26T22:17:10.927Z,99.90
2019-05-26T22:20:15.156Z,99.90
2019-05-26T22:23:19.256Z,99.90
2019-05-26T22:26:23.260Z,99.90
2019-05-26T22:29:27.359Z,99.90
2019-05-26T22:32:31.264Z,99.90
2019-05-26T22:35:35.242Z,99.90
2019-05-26T22:38:39.137Z,99.90
2019-05-26T22:41:43.179Z,99.90
2019-05-26T22:44:47.128Z,99.90
2019-05-26T22:47:51.037Z,99.90
2019-05-26T22:50:54.997Z,99.90
2019-05-26T22:53:58.937Z,99.90
2019-05-26T22:57:02.976Z,99.90
2019-05-26T23:00:11.023Z,99.90
2019-05-26T23:03:15.001Z,99.90
2019-05-26T23:06:19.141Z,99.90
2019-05-26T23:09:23.099Z,99.90
2019-05-26T23:12:26.996Z,99.90
2019-05-26T23:15:30.996Z,99.90
2019-05-26T23:18:34.918Z,99.90
2019-05-26T23:21:38.860Z,99.90
2019-05-26T23:24:42.897Z,99.90
2019-05-26T23:27:46.857Z,99.90
2019-05-26T23:30:51.094Z,99.90
2019-05-26T23:33:55.332Z,99.90
2019-05-26T23:36:59.331Z,99.90
2019-05-26T23:40:03.313Z,99.90
2019-05-26T23:43:07.495Z,99.90
2019-05-26T23:46:11.379Z,99.90
2019-05-26T23:49:15.338Z,99.90
2019-05-26T23:52:19.677Z,99.90
2019-05-26T23:55:24.124Z,99.90
2019-05-26T23:58:28.376Z,99.90
